sensor_id;sensor_type;location;lat;lon;timestamp;pressure;altitude;pressure_sealevel;temperature;humidity
67740;BME280;54536;50.090;14.420;2023-08-08T00:00:24;99330.59;;;16.54;58.75
67740;BME280;54536;50.090;14.420;2023-08-08T00:03:10;99334.28;;;16.53;58.33
67740;BME280;54536;50.090;14.420;2023-08-08T00:05:36;99329.41;;;16.65;58.25
67740;BME280;54536;50.090;14.420;2023-08-08T00:08:06;99333.50;;;16.67;58.45
67740;BME280;54536;50.090;14.420;2023-08-08T00:10:32;99330.81;;;16.52;58.45
67740;BME280;54536;50.090;14.420;2023-08-08T00:12:58;99335.16;;;16.45;59.00
67740;BME280;54536;50.090;14.420;2023-08-08T00:15:25;99331.63;;;16.53;58.54
67740;BME280;54536;50.090;14.420;2023-08-08T00:17:51;99326.06;;;16.62;58.26
67740;BME280;54536;50.090;14.420;2023-08-08T00:20:17;99323.59;;;16.61;58.53
67740;BME280;54536;50.090;14.420;2023-08-08T00:22:43;99328.63;;;16.56;58.28
67740;BME280;54536;50.090;14.420;2023-08-08T00:25:09;99320.06;;;16.46;58.91
67740;BME280;54536;50.090;14.420;2023-08-08T00:27:36;99331.97;;;16.50;58.78
67740;BME280;54536;50.090;14.420;2023-08-08T00:30:08;99327.56;;;16.42;58.92
67740;BME280;54536;50.090;14.420;2023-08-08T00:32:34;99323.06;;;16.43;59.01
67740;BME280;54536;50.090;14.420;2023-08-08T00:35:00;99320.53;;;16.49;58.61
67740;BME280;54536;50.090;14.420;2023-08-08T00:37:27;99327.91;;;16.39;59.16
67740;BME280;54536;50.090;14.420;2023-08-08T00:39:53;99322.13;;;16.35;59.17
67740;BME280;54536;50.090;14.420;2023-08-08T00:42:19;99328.19;;;16.44;59.08
67740;BME280;54536;50.090;14.420;2023-08-08T00:44:45;99332.03;;;16.42;58.84
67740;BME280;54536;50.090;14.420;2023-08-08T00:47:12;99325.63;;;16.28;59.46
67740;BME280;54536;50.090;14.420;2023-08-08T00:49:38;99328.63;;;16.25;59.92
67740;BME280;54536;50.090;14.420;2023-08-08T00:52:06;99327.19;;;16.45;59.07
67740;BME280;54536;50.090;14.420;2023-08-08T00:54:32;99326.06;;;16.39;59.22
67740;BME280;54536;50.090;14.420;2023-08-08T00:56:59;99331.81;;;16.20;59.63
67740;BME280;54536;50.090;14.420;2023-08-08T00:59:25;99321.31;;;16.27;59.86
67740;BME280;54536;50.090;14.420;2023-08-08T01:01:51;99324.31;;;16.32;59.34
67740;BME280;54536;50.090;14.420;2023-08-08T01:04:19;99326.75;;;16.33;59.41
67740;BME280;54536;50.090;14.420;2023-08-08T01:09:55;99318.75;;;16.19;59.46
67740;BME280;54536;50.090;14.420;2023-08-08T01:12:25;99326.97;;;16.24;59.55
67740;BME280;54536;50.090;14.420;2023-08-08T01:14:54;99316.44;;;16.15;59.76
67740;BME280;54536;50.090;14.420;2023-08-08T01:17:22;99312.28;;;16.13;59.50
67740;BME280;54536;50.090;14.420;2023-08-08T01:19:50;99317.50;;;15.98;60.27
67740;BME280;54536;50.090;14.420;2023-08-08T01:22:35;99320.94;;;16.07;60.09
67740;BME280;54536;50.090;14.420;2023-08-08T01:25:04;99321.59;;;16.09;59.32
67740;BME280;54536;50.090;14.420;2023-08-08T01:27:31;99324.41;;;16.07;59.62
67740;BME280;54536;50.090;14.420;2023-08-08T01:29:57;99336.06;;;15.98;59.92
67740;BME280;54536;50.090;14.420;2023-08-08T01:32:23;99324.13;;;16.02;59.55
67740;BME280;54536;50.090;14.420;2023-08-08T01:34:49;99336.72;;;16.00;59.90
67740;BME280;54536;50.090;14.420;2023-08-08T01:37:40;99326.59;;;16.04;59.96
67740;BME280;54536;50.090;14.420;2023-08-08T01:40:09;99325.91;;;16.10;59.74
67740;BME280;54536;50.090;14.420;2023-08-08T01:42:37;99321.38;;;15.79;60.24
67740;BME280;54536;50.090;14.420;2023-08-08T01:45:04;99313.34;;;15.96;60.20
67740;BME280;54536;50.090;14.420;2023-08-08T01:47:31;99314.34;;;15.95;59.46
67740;BME280;54536;50.090;14.420;2023-08-08T01:49:57;99310.19;;;16.00;60.23
67740;BME280;54536;50.090;14.420;2023-08-08T01:52:23;99303.97;;;15.85;59.64
67740;BME280;54536;50.090;14.420;2023-08-08T01:54:49;99299.13;;;15.97;59.74
67740;BME280;54536;50.090;14.420;2023-08-08T01:57:16;99303.38;;;16.06;59.75
67740;BME280;54536;50.090;14.420;2023-08-08T01:59:42;99304.41;;;15.97;59.54
67740;BME280;54536;50.090;14.420;2023-08-08T02:02:09;99298.28;;;15.96;59.60
67740;BME280;54536;50.090;14.420;2023-08-08T02:04:35;99312.25;;;15.82;60.07
67740;BME280;54536;50.090;14.420;2023-08-08T02:07:01;99306.13;;;15.81;60.37
67740;BME280;54536;50.090;14.420;2023-08-08T02:09:27;99304.34;;;15.65;60.64
67740;BME280;54536;50.090;14.420;2023-08-08T02:11:54;99314.06;;;15.89;60.05
67740;BME280;54536;50.090;14.420;2023-08-08T02:14:20;99306.69;;;15.68;60.63
67740;BME280;54536;50.090;14.420;2023-08-08T02:16:46;99316.13;;;15.71;60.49
67740;BME280;54536;50.090;14.420;2023-08-08T02:19:12;99312.81;;;15.53;61.23
67740;BME280;54536;50.090;14.420;2023-08-08T02:21:41;99302.69;;;15.73;60.91
67740;BME280;54536;50.090;14.420;2023-08-08T02:24:07;99306.34;;;15.55;60.98
67740;BME280;54536;50.090;14.420;2023-08-08T02:26:34;99298.03;;;15.75;60.17
67740;BME280;54536;50.090;14.420;2023-08-08T02:29:00;99306.97;;;15.65;60.03
67740;BME280;54536;50.090;14.420;2023-08-08T02:31:27;99296.56;;;15.56;60.60
67740;BME280;54536;50.090;14.420;2023-08-08T02:33:53;99298.75;;;15.60;60.58
67740;BME280;54536;50.090;14.420;2023-08-08T02:36:21;99306.69;;;15.52;60.53
67740;BME280;54536;50.090;14.420;2023-08-08T02:38:47;99299.22;;;15.64;60.18
67740;BME280;54536;50.090;14.420;2023-08-08T02:41:13;99295.91;;;15.70;59.91
67740;BME280;54536;50.090;14.420;2023-08-08T02:43:39;99299.72;;;15.59;60.26
67740;BME280;54536;50.090;14.420;2023-08-08T02:46:05;99291.09;;;15.74;59.65
67740;BME280;54536;50.090;14.420;2023-08-08T02:48:32;99299.91;;;15.58;60.49
67740;BME280;54536;50.090;14.420;2023-08-08T02:50:58;99309.88;;;15.48;60.38
67740;BME280;54536;50.090;14.420;2023-08-08T02:53:24;99305.91;;;15.43;60.35
67740;BME280;54536;50.090;14.420;2023-08-08T02:55:51;99301.25;;;15.45;60.22
67740;BME280;54536;50.090;14.420;2023-08-08T02:58:17;99304.38;;;15.49;59.91
67740;BME280;54536;50.090;14.420;2023-08-08T03:00:43;99306.22;;;15.49;59.87
67740;BME280;54536;50.090;14.420;2023-08-08T03:03:12;99303.22;;;15.52;60.35
67740;BME280;54536;50.090;14.420;2023-08-08T03:05:38;99295.06;;;15.61;59.53
67740;BME280;54536;50.090;14.420;2023-08-08T03:08:04;99298.75;;;15.60;59.41
67740;BME280;54536;50.090;14.420;2023-08-08T03:10:31;99302.38;;;15.59;59.82
67740;BME280;54536;50.090;14.420;2023-08-08T03:12:57;99298.56;;;15.70;59.18
67740;BME280;54536;50.090;14.420;2023-08-08T03:15:23;99310.28;;;15.76;59.19
67740;BME280;54536;50.090;14.420;2023-08-08T03:17:49;99309.94;;;15.79;58.84
67740;BME280;54536;50.090;14.420;2023-08-08T03:20:16;99306.50;;;15.62;59.38
67740;BME280;54536;50.090;14.420;2023-08-08T03:22:42;99303.84;;;15.62;59.36
67740;BME280;54536;50.090;14.420;2023-08-08T03:25:08;99306.34;;;15.72;58.93
67740;BME280;54536;50.090;14.420;2023-08-08T03:27:35;99304.84;;;15.77;59.41
67740;BME280;54536;50.090;14.420;2023-08-08T03:30:02;99313.47;;;15.71;59.06
67740;BME280;54536;50.090;14.420;2023-08-08T03:32:28;99304.78;;;15.85;58.70
67740;BME280;54536;50.090;14.420;2023-08-08T03:34:54;99310.28;;;15.84;58.78
67740;BME280;54536;50.090;14.420;2023-08-08T03:37:21;99314.13;;;15.73;59.26
67740;BME280;54536;50.090;14.420;2023-08-08T03:39:47;99312.31;;;15.74;58.82
67740;BME280;54536;50.090;14.420;2023-08-08T03:42:13;99324.53;;;15.83;58.91
67740;BME280;54536;50.090;14.420;2023-08-08T03:44:39;99321.91;;;15.75;59.05
67740;BME280;54536;50.090;14.420;2023-08-08T03:47:06;99314.09;;;15.81;58.78
67740;BME280;54536;50.090;14.420;2023-08-08T03:49:33;99313.06;;;15.82;58.99
67740;BME280;54536;50.090;14.420;2023-08-08T03:51:59;99310.97;;;15.78;58.91
67740;BME280;54536;50.090;14.420;2023-08-08T03:54:25;99313.06;;;15.82;58.69
67740;BME280;54536;50.090;14.420;2023-08-08T03:56:51;99316.88;;;15.88;58.33
67740;BME280;54536;50.090;14.420;2023-08-08T03:59:18;99319.88;;;15.85;58.87
67740;BME280;54536;50.090;14.420;2023-08-08T04:01:44;99314.69;;;15.91;58.69
67740;BME280;54536;50.090;14.420;2023-08-08T04:04:11;99321.03;;;15.82;59.06
67740;BME280;54536;50.090;14.420;2023-08-08T04:06:37;99319.50;;;15.96;58.67
67740;BME280;54536;50.090;14.420;2023-08-08T04:09:03;99317.50;;;15.98;58.68
67740;BME280;54536;50.090;14.420;2023-08-08T04:11:29;99315.31;;;16.02;58.50
67740;BME280;54536;50.090;14.420;2023-08-08T04:13:56;99307.19;;;16.03;58.52
67740;BME280;54536;50.090;14.420;2023-08-08T04:16:22;99317.34;;;16.00;58.76
67740;BME280;54536;50.090;14.420;2023-08-08T04:18:48;99321.69;;;15.93;59.07
67740;BME280;54536;50.090;14.420;2023-08-08T04:21:14;99326.19;;;15.84;59.40
67740;BME280;54536;50.090;14.420;2023-08-08T04:23:41;99326.00;;;15.85;59.78
67740;BME280;54536;50.090;14.420;2023-08-08T04:26:07;99333.31;;;15.75;60.14
67740;BME280;54536;50.090;14.420;2023-08-08T04:28:33;99330.53;;;15.77;59.66
67740;BME280;54536;50.090;14.420;2023-08-08T04:30:59;99331.97;;;15.79;60.03
67740;BME280;54536;50.090;14.420;2023-08-08T04:33:25;99332.66;;;15.81;59.83
67740;BME280;54536;50.090;14.420;2023-08-08T04:35:51;99338.78;;;15.82;59.96
67740;BME280;54536;50.090;14.420;2023-08-08T04:38:18;99338.47;;;15.77;60.24
67740;BME280;54536;50.090;14.420;2023-08-08T04:40:44;99345.41;;;15.78;60.33
67740;BME280;54536;50.090;14.420;2023-08-08T04:43:10;99342.44;;;15.73;60.64
67740;BME280;54536;50.090;14.420;2023-08-08T04:45:36;99338.56;;;16.00;59.95
67740;BME280;54536;50.090;14.420;2023-08-08T04:48:03;99349.53;;;15.88;60.29
67740;BME280;54536;50.090;14.420;2023-08-08T04:50:29;99348.81;;;16.03;60.16
67740;BME280;54536;50.090;14.420;2023-08-08T04:52:55;99346.47;;;16.08;59.85
67740;BME280;54536;50.090;14.420;2023-08-08T04:55:21;99345.97;;;16.04;59.75
67740;BME280;54536;50.090;14.420;2023-08-08T04:57:47;99342.19;;;15.99;60.04
67740;BME280;54536;50.090;14.420;2023-08-08T05:00:14;99340.03;;;16.02;59.96
67740;BME280;54536;50.090;14.420;2023-08-08T05:02:41;99353.06;;;16.12;59.65
67740;BME280;54536;50.090;14.420;2023-08-08T05:05:07;99345.44;;;16.17;58.92
67740;BME280;54536;50.090;14.420;2023-08-08T05:07:33;99346.66;;;16.06;59.50
67740;BME280;54536;50.090;14.420;2023-08-08T05:10:02;99348.41;;;16.14;59.23
67740;BME280;54536;50.090;14.420;2023-08-08T05:12:29;99352.59;;;16.08;59.87
67740;BME280;54536;50.090;14.420;2023-08-08T05:14:55;99352.44;;;16.10;59.71
67740;BME280;54536;50.090;14.420;2023-08-08T05:17:21;99340.59;;;16.21;59.31
67740;BME280;54536;50.090;14.420;2023-08-08T05:19:47;99337.66;;;16.15;59.56
67740;BME280;54536;50.090;14.420;2023-08-08T05:22:13;99345.16;;;16.04;59.67
67740;BME280;54536;50.090;14.420;2023-08-08T05:24:39;99341.34;;;16.06;59.49
67740;BME280;54536;50.090;14.420;2023-08-08T05:27:06;99343.81;;;16.08;59.47
67740;BME280;54536;50.090;14.420;2023-08-08T05:29:32;99330.38;;;16.09;59.37
67740;BME280;54536;50.090;14.420;2023-08-08T05:31:58;99344.50;;;16.02;59.25
67740;BME280;54536;50.090;14.420;2023-08-08T05:34:24;99345.47;;;16.09;59.25
67740;BME280;54536;50.090;14.420;2023-08-08T05:36:51;99336.47;;;16.18;59.01
67740;BME280;54536;50.090;14.420;2023-08-08T05:39:17;99345.75;;;16.22;58.84
67740;BME280;54536;50.090;14.420;2023-08-08T05:41:43;99345.41;;;16.25;59.12
67740;BME280;54536;50.090;14.420;2023-08-08T05:44:09;99337.22;;;16.35;58.82
67740;BME280;54536;50.090;14.420;2023-08-08T05:46:36;99329.16;;;16.51;58.15
67740;BME280;54536;50.090;14.420;2023-08-08T05:49:02;99329.50;;;16.48;58.56
67740;BME280;54536;50.090;14.420;2023-08-08T05:51:28;99335.06;;;16.61;58.35
67740;BME280;54536;50.090;14.420;2023-08-08T05:53:54;99335.88;;;16.62;58.14
67740;BME280;54536;50.090;14.420;2023-08-08T05:56:21;99324.09;;;16.65;58.04
67740;BME280;54536;50.090;14.420;2023-08-08T05:58:47;99338.53;;;16.62;58.02
67740;BME280;54536;50.090;14.420;2023-08-08T06:01:13;99318.78;;;16.65;58.08
67740;BME280;54536;50.090;14.420;2023-08-08T06:03:39;99323.78;;;16.59;58.57
67740;BME280;54536;50.090;14.420;2023-08-08T06:06:05;99324.16;;;16.79;58.16
67740;BME280;54536;50.090;14.420;2023-08-08T06:08:32;99327.47;;;16.81;57.92
67740;BME280;54536;50.090;14.420;2023-08-08T06:10:58;99323.84;;;16.74;57.85
67740;BME280;54536;50.090;14.420;2023-08-08T06:13:24;99321.91;;;16.91;57.60
67740;BME280;54536;50.090;14.420;2023-08-08T06:15:51;99330.25;;;16.88;57.50
67740;BME280;54536;50.090;14.420;2023-08-08T06:18:17;99331.84;;;17.12;57.39
67740;BME280;54536;50.090;14.420;2023-08-08T06:20:44;99338.63;;;17.15;56.82
67740;BME280;54536;50.090;14.420;2023-08-08T06:23:10;99341.41;;;17.21;56.92
67740;BME280;54536;50.090;14.420;2023-08-08T06:25:37;99326.47;;;17.35;56.27
67740;BME280;54536;50.090;14.420;2023-08-08T06:28:05;99328.34;;;17.49;55.78
67740;BME280;54536;50.090;14.420;2023-08-08T06:30:32;99333.94;;;17.69;55.13
67740;BME280;54536;50.090;14.420;2023-08-08T06:32:58;99334.03;;;17.91;54.86
67740;BME280;54536;50.090;14.420;2023-08-08T06:35:25;99324.81;;;18.23;53.67
67740;BME280;54536;50.090;14.420;2023-08-08T06:37:51;99330.13;;;18.23;53.60
67740;BME280;54536;50.090;14.420;2023-08-08T06:40:17;99338.09;;;18.38;53.36
67740;BME280;54536;50.090;14.420;2023-08-08T06:42:43;99341.38;;;18.40;53.14
67740;BME280;54536;50.090;14.420;2023-08-08T06:45:10;99339.59;;;18.47;53.05
67740;BME280;54536;50.090;14.420;2023-08-08T06:47:38;99338.13;;;18.23;53.24
67740;BME280;54536;50.090;14.420;2023-08-08T06:50:05;99342.06;;;18.27;53.46
67740;BME280;54536;50.090;14.420;2023-08-08T06:52:32;99338.78;;;18.10;53.26
67740;BME280;54536;50.090;14.420;2023-08-08T06:54:58;99334.19;;;18.19;53.46
67740;BME280;54536;50.090;14.420;2023-08-08T06:57:24;99335.66;;;18.21;52.99
67740;BME280;54536;50.090;14.420;2023-08-08T06:59:51;99329.47;;;18.36;52.57
67740;BME280;54536;50.090;14.420;2023-08-08T07:02:19;99333.38;;;18.40;52.76
67740;BME280;54536;50.090;14.420;2023-08-08T07:04:47;99331.56;;;18.40;53.14
67740;BME280;54536;50.090;14.420;2023-08-08T07:07:13;99337.19;;;18.31;52.75
67740;BME280;54536;50.090;14.420;2023-08-08T07:09:39;99325.97;;;18.35;52.61
67740;BME280;54536;50.090;14.420;2023-08-08T07:12:05;99332.84;;;18.44;52.20
67740;BME280;54536;50.090;14.420;2023-08-08T07:14:32;99336.31;;;18.45;51.76
67740;BME280;54536;50.090;14.420;2023-08-08T07:16:58;99336.25;;;18.38;51.96
67740;BME280;54536;50.090;14.420;2023-08-08T07:19:25;99344.63;;;18.35;52.19
67740;BME280;54536;50.090;14.420;2023-08-08T07:21:51;99342.28;;;18.47;52.27
67740;BME280;54536;50.090;14.420;2023-08-08T07:24:17;99339.28;;;18.35;52.13
67740;BME280;54536;50.090;14.420;2023-08-08T07:26:44;99344.16;;;18.32;52.24
67740;BME280;54536;50.090;14.420;2023-08-08T07:29:10;99345.50;;;18.42;52.88
67740;BME280;54536;50.090;14.420;2023-08-08T07:31:36;99340.28;;;18.34;52.19
67740;BME280;54536;50.090;14.420;2023-08-08T07:34:02;99334.28;;;18.47;52.03
67740;BME280;54536;50.090;14.420;2023-08-08T07:36:29;99340.91;;;18.51;51.96
67740;BME280;54536;50.090;14.420;2023-08-08T07:38:55;99335.31;;;18.46;51.83
67740;BME280;54536;50.090;14.420;2023-08-08T07:41:26;99337.56;;;18.64;51.36
67740;BME280;54536;50.090;14.420;2023-08-08T07:43:53;99337.78;;;18.84;52.56
67740;BME280;54536;50.090;14.420;2023-08-08T07:46:19;99330.22;;;18.87;51.49
67740;BME280;54536;50.090;14.420;2023-08-08T07:48:45;99340.66;;;18.89;51.16
67740;BME280;54536;50.090;14.420;2023-08-08T07:51:11;99335.16;;;18.90;50.28
67740;BME280;54536;50.090;14.420;2023-08-08T07:53:38;99332.94;;;18.94;50.72
67740;BME280;54536;50.090;14.420;2023-08-08T07:56:04;99335.66;;;19.01;50.53
67740;BME280;54536;50.090;14.420;2023-08-08T07:58:32;99327.59;;;18.94;50.46
67740;BME280;54536;50.090;14.420;2023-08-08T08:00:58;99333.00;;;18.79;50.24
67740;BME280;54536;50.090;14.420;2023-08-08T08:03:28;99325.06;;;18.64;50.64
67740;BME280;54536;50.090;14.420;2023-08-08T08:05:54;99330.63;;;18.69;50.02
67740;BME280;54536;50.090;14.420;2023-08-08T08:08:20;99328.44;;;18.73;50.17
67740;BME280;54536;50.090;14.420;2023-08-08T08:10:47;99322.34;;;18.79;49.46
67740;BME280;54536;50.090;14.420;2023-08-08T08:13:14;99321.31;;;19.02;48.90
67740;BME280;54536;50.090;14.420;2023-08-08T08:15:40;99314.63;;;19.12;48.36
67740;BME280;54536;50.090;14.420;2023-08-08T08:18:07;99317.06;;;19.07;48.36
67740;BME280;54536;50.090;14.420;2023-08-08T08:20:32;99317.13;;;18.92;48.98
67740;BME280;54536;50.090;14.420;2023-08-08T08:23:00;99311.19;;;19.18;47.78
67740;BME280;54536;50.090;14.420;2023-08-08T08:25:26;99310.28;;;19.33;46.97
67740;BME280;54536;50.090;14.420;2023-08-08T08:27:52;99318.19;;;19.54;45.89
67740;BME280;54536;50.090;14.420;2023-08-08T08:30:18;99318.63;;;19.58;46.17
67740;BME280;54536;50.090;14.420;2023-08-08T08:32:45;99316.72;;;19.80;45.49
67740;BME280;54536;50.090;14.420;2023-08-08T08:35:11;99302.84;;;19.98;45.06
67740;BME280;54536;50.090;14.420;2023-08-08T08:37:39;99305.84;;;19.81;44.96
67740;BME280;54536;50.090;14.420;2023-08-08T08:40:05;99292.16;;;19.98;45.11
67740;BME280;54536;50.090;14.420;2023-08-08T08:42:32;99289.38;;;20.26;44.33
67740;BME280;54536;50.090;14.420;2023-08-08T08:45:01;99300.50;;;20.43;44.67
67740;BME280;54536;50.090;14.420;2023-08-08T08:47:31;99285.97;;;20.52;44.07
67740;BME280;54536;50.090;14.420;2023-08-08T08:49:58;99286.22;;;20.84;43.31
67740;BME280;54536;50.090;14.420;2023-08-08T08:52:25;99279.66;;;20.99;43.32
67740;BME280;54536;50.090;14.420;2023-08-08T08:54:51;99295.88;;;20.98;43.24
67740;BME280;54536;50.090;14.420;2023-08-08T08:57:18;99292.16;;;20.92;43.21
67740;BME280;54536;50.090;14.420;2023-08-08T08:59:46;99293.59;;;20.68;43.96
67740;BME280;54536;50.090;14.420;2023-08-08T09:02:13;99288.38;;;20.40;43.52
67740;BME280;54536;50.090;14.420;2023-08-08T09:04:39;99290.88;;;20.48;43.27
67740;BME280;54536;50.090;14.420;2023-08-08T09:07:06;99286.75;;;20.46;43.76
67740;BME280;54536;50.090;14.420;2023-08-08T09:09:33;99298.03;;;20.34;44.00
67740;BME280;54536;50.090;14.420;2023-08-08T09:12:01;99294.56;;;20.41;44.08
67740;BME280;54536;50.090;14.420;2023-08-08T09:14:29;99290.69;;;20.56;44.10
67740;BME280;54536;50.090;14.420;2023-08-08T09:16:55;99283.31;;;20.52;44.05
67740;BME280;54536;50.090;14.420;2023-08-08T09:19:24;99289.72;;;20.71;44.03
67740;BME280;54536;50.090;14.420;2023-08-08T09:21:52;99284.78;;;20.74;44.13
67740;BME280;54536;50.090;14.420;2023-08-08T09:24:19;99288.88;;;20.77;43.48
67740;BME280;54536;50.090;14.420;2023-08-08T09:26:46;99288.47;;;20.93;43.58
67740;BME280;54536;50.090;14.420;2023-08-08T09:29:13;99283.72;;;21.02;43.30
67740;BME280;54536;50.090;14.420;2023-08-08T09:31:40;99291.56;;;20.97;42.28
67740;BME280;54536;50.090;14.420;2023-08-08T09:34:06;99284.34;;;21.04;42.14
67740;BME280;54536;50.090;14.420;2023-08-08T09:36:33;99284.53;;;21.02;41.60
67740;BME280;54536;50.090;14.420;2023-08-08T09:39:00;99290.13;;;21.01;42.06
67740;BME280;54536;50.090;14.420;2023-08-08T09:41:27;99291.56;;;20.84;42.36
67740;BME280;54536;50.090;14.420;2023-08-08T09:43:54;99280.47;;;21.00;41.92
67740;BME280;54536;50.090;14.420;2023-08-08T09:46:22;99273.00;;;21.22;42.23
67740;BME280;54536;50.090;14.420;2023-08-08T09:48:48;99277.50;;;21.48;42.05
67740;BME280;54536;50.090;14.420;2023-08-08T09:51:16;99269.31;;;21.30;41.50
67740;BME280;54536;50.090;14.420;2023-08-08T09:53:42;99263.97;;;21.30;41.22
67740;BME280;54536;50.090;14.420;2023-08-08T09:56:12;99269.09;;;21.31;41.23
67740;BME280;54536;50.090;14.420;2023-08-08T09:58:40;99268.66;;;21.54;41.06
67740;BME280;54536;50.090;14.420;2023-08-08T10:01:07;99272.13;;;21.61;40.44
67740;BME280;54536;50.090;14.420;2023-08-08T10:03:36;99276.94;;;21.39;40.22
67740;BME280;54536;50.090;14.420;2023-08-08T10:06:04;99266.81;;;21.48;40.19
67740;BME280;54536;50.090;14.420;2023-08-08T10:08:30;99269.25;;;21.63;39.67
67740;BME280;54536;50.090;14.420;2023-08-08T10:10:57;99268.41;;;21.69;39.76
67740;BME280;54536;50.090;14.420;2023-08-08T10:13:25;99266.00;;;21.41;39.11
67740;BME280;54536;50.090;14.420;2023-08-08T10:15:54;99262.09;;;21.43;39.41
67740;BME280;54536;50.090;14.420;2023-08-08T10:18:24;99260.09;;;21.84;38.71
67740;BME280;54536;50.090;14.420;2023-08-08T10:20:51;99265.06;;;21.80;38.11
67740;BME280;54536;50.090;14.420;2023-08-08T10:23:20;99247.06;;;21.94;38.95
67740;BME280;54536;50.090;14.420;2023-08-08T10:25:48;99262.66;;;22.10;37.80
67740;BME280;54536;50.090;14.420;2023-08-08T10:28:17;99244.63;;;21.92;37.37
67740;BME280;54536;50.090;14.420;2023-08-08T10:30:47;99247.66;;;22.03;37.37
67740;BME280;54536;50.090;14.420;2023-08-08T10:33:25;99240.78;;;22.13;36.70
67740;BME280;54536;50.090;14.420;2023-08-08T10:38:20;99245.38;;;22.06;36.98
67740;BME280;54536;50.090;14.420;2023-08-08T10:40:55;99242.34;;;21.96;37.28
67740;BME280;54536;50.090;14.420;2023-08-08T10:43:28;99239.72;;;21.83;37.10
67740;BME280;54536;50.090;14.420;2023-08-08T10:46:00;99226.50;;;21.94;36.69
67740;BME280;54536;50.090;14.420;2023-08-08T10:48:27;99231.50;;;22.23;35.97
67740;BME280;54536;50.090;14.420;2023-08-08T10:50:55;99226.75;;;22.25;36.52
67740;BME280;54536;50.090;14.420;2023-08-08T10:53:27;99228.25;;;22.14;33.95
67740;BME280;54536;50.090;14.420;2023-08-08T10:55:59;99215.41;;;21.91;34.14
67740;BME280;54536;50.090;14.420;2023-08-08T10:58:36;99217.13;;;22.10;33.09
67740;BME280;54536;50.090;14.420;2023-08-08T11:01:03;99209.94;;;22.11;32.71
67740;BME280;54536;50.090;14.420;2023-08-08T11:03:37;99208.41;;;22.28;32.62
67740;BME280;54536;50.090;14.420;2023-08-08T11:06:09;99206.09;;;22.32;32.34
67740;BME280;54536;50.090;14.420;2023-08-08T11:08:36;99197.41;;;22.36;32.33
67740;BME280;54536;50.090;14.420;2023-08-08T11:11:05;99178.88;;;22.60;32.96
67740;BME280;54536;50.090;14.420;2023-08-08T11:13:32;99180.88;;;22.39;32.40
67740;BME280;54536;50.090;14.420;2023-08-08T11:15:59;99185.91;;;22.29;32.80
67740;BME280;54536;50.090;14.420;2023-08-08T11:18:28;99173.28;;;22.36;32.38
67740;BME280;54536;50.090;14.420;2023-08-08T11:20:55;99174.16;;;22.80;32.26
67740;BME280;54536;50.090;14.420;2023-08-08T11:23:21;99166.16;;;22.99;30.94
67740;BME280;54536;50.090;14.420;2023-08-08T11:25:47;99173.31;;;23.23;31.22
67740;BME280;54536;50.090;14.420;2023-08-08T11:28:14;99156.25;;;23.36;30.95
67740;BME280;54536;50.090;14.420;2023-08-08T11:30:43;99155.72;;;23.94;31.50
67740;BME280;54536;50.090;14.420;2023-08-08T11:33:13;99160.53;;;24.04;29.82
67740;BME280;54536;50.090;14.420;2023-08-08T11:35:46;99146.53;;;24.25;29.67
67740;BME280;54536;50.090;14.420;2023-08-08T11:38:16;99154.81;;;24.00;29.29
67740;BME280;54536;50.090;14.420;2023-08-08T11:40:43;99151.56;;;24.10;29.36
67740;BME280;54536;50.090;14.420;2023-08-08T11:43:11;99144.66;;;24.26;28.48
67740;BME280;54536;50.090;14.420;2023-08-08T11:45:39;99155.50;;;24.08;28.88
67740;BME280;54536;50.090;14.420;2023-08-08T11:48:08;99144.53;;;24.09;30.67
67740;BME280;54536;50.090;14.420;2023-08-08T11:50:37;99146.44;;;23.90;29.23
67740;BME280;54536;50.090;14.420;2023-08-08T11:53:03;99139.84;;;24.04;29.05
67740;BME280;54536;50.090;14.420;2023-08-08T11:55:31;99142.22;;;23.82;27.10
67740;BME280;54536;50.090;14.420;2023-08-08T11:57:57;99133.00;;;23.78;27.54
67740;BME280;54536;50.090;14.420;2023-08-08T12:00:30;99127.78;;;23.65;28.37
67740;BME280;54536;50.090;14.420;2023-08-08T12:02:57;99132.66;;;23.87;28.86
67740;BME280;54536;50.090;14.420;2023-08-08T12:05:24;99116.59;;;23.98;27.81
67740;BME280;54536;50.090;14.420;2023-08-08T12:07:51;99120.63;;;24.31;27.95
67740;BME280;54536;50.090;14.420;2023-08-08T12:10:20;99125.44;;;24.41;27.75
67740;BME280;54536;50.090;14.420;2023-08-08T12:12:55;99117.72;;;24.68;26.30
67740;BME280;54536;50.090;14.420;2023-08-08T12:15:23;99110.03;;;25.35;25.78
67740;BME280;54536;50.090;14.420;2023-08-08T12:17:50;99107.88;;;26.45;25.22
67740;BME280;54536;50.090;14.420;2023-08-08T12:20:16;99115.50;;;26.87;24.26
67740;BME280;54536;50.090;14.420;2023-08-08T12:22:43;99103.84;;;27.96;23.17
67740;BME280;54536;50.090;14.420;2023-08-08T12:25:09;99092.19;;;28.65;22.32
67740;BME280;54536;50.090;14.420;2023-08-08T12:27:35;99103.59;;;29.30;21.44
67740;BME280;54536;50.090;14.420;2023-08-08T12:30:02;99105.47;;;29.30;20.69
67740;BME280;54536;50.090;14.420;2023-08-08T12:32:28;99108.03;;;29.72;20.21
67740;BME280;54536;50.090;14.420;2023-08-08T12:34:57;99133.56;;;29.86;20.33
67740;BME280;54536;50.090;14.420;2023-08-08T12:37:24;99110.50;;;30.40;20.25
67740;BME280;54536;50.090;14.420;2023-08-08T12:39:51;99110.78;;;30.49;20.07
67740;BME280;54536;50.090;14.420;2023-08-08T12:42:18;99102.66;;;30.33;20.27
67740;BME280;54536;50.090;14.420;2023-08-08T12:44:44;99094.66;;;30.93;19.91
67740;BME280;54536;50.090;14.420;2023-08-08T12:47:11;99111.09;;;31.22;19.07
67740;BME280;54536;50.090;14.420;2023-08-08T12:49:37;99095.66;;;31.18;19.32
67740;BME280;54536;50.090;14.420;2023-08-08T12:52:04;99089.34;;;31.28;19.23
67740;BME280;54536;50.090;14.420;2023-08-08T12:54:30;99084.69;;;31.38;18.78